Hyalite Weather Station

This weather station provides temperature, wind speed, gust or max wind speed, and wind direction at 9982ft near the summit of Flanders Mountain. This data can be used with temperature and precipitation data from the Shower Falls SNOTEL site. If the data has not been updated recently you can view it directly on datagarrison.com

Elevation
9982ft
Jump to table bottom
Date Time Temperature
deg F
RH, % Wind Speed Wind Gust Wind Direction
11/26/20 08:00 5.1 89 18 31 W - 257
11/26/20 07:00 4.7 89 17 30 W - 263
11/26/20 06:00 4.8 89 17 27 W - 258
11/26/20 05:00 4.9 89 16 27 W - 258
11/26/20 04:00 5.1 89 17 27 W - 265
11/26/20 03:00 5.0 89 14 25 W - 270
11/26/20 02:00 5.5 89 12 22 W - 268
11/26/20 01:00 5.6 89 13 21 W - 271
11/26/20 00:00 5.7 89 14 29 W - 272
11/25/20 23:00 6.0 89 12 25 W - 274
11/25/20 22:00 6.3 89 11 22 W - 270
11/25/20 21:00 7.2 90 12 29 W - 274
11/25/20 20:00 7.6 90 15 26 W - 275
11/25/20 19:00 10.0 91 12 24 W - 278
11/25/20 18:00 11.9 91 11 24 W - 289
11/25/20 17:00 13.8 92 10 17 W - 279
11/25/20 16:00 14.0 92 14 25 W - 256
11/25/20 15:00 14.2 92 15 25 W - 250
11/25/20 14:00 14.4 92 19 31 W - 248
11/25/20 13:00 14.3 92 18 30 SW - 246
11/25/20 12:00 14.7 90 22 33 SW - 241
11/25/20 11:00 14.6 89 26 35 SW - 241
11/25/20 10:00 16.2 85 27 38 SW - 241
11/25/20 09:00 16.3 84 25 33 SW - 241
11/25/20 08:00 21.4 65 30 37 SW - 240
11/25/20 07:00 24.1 58 34 44 SW - 240
11/25/20 06:00 23.7 58 31 45 SW - 240
11/25/20 05:00 25.3 55 25 36 SW - 232
11/25/20 04:00 26.4 52 23 36 SW - 233
11/25/20 03:00 25.2 55 22 35 SW - 236
11/25/20 02:00 23.8 60 19 33 SW - 239
11/25/20 01:00 23.1 66 20 32 SW - 240
11/25/20 00:00 23.7 69 18 28 SW - 239
11/24/20 23:00 23.7 66 14 24 SW - 246
11/24/20 22:00 23.4 66 11 19 SW - 244
11/24/20 21:00 24.8 63 9 17 W - 250
11/24/20 20:00 24.7 69 14 24 W - 268
11/24/20 19:00 24.0 70 15 24 W - 268
11/24/20 18:00 22.5 72 14 25 W - 254
11/24/20 17:00 21.1 79 13 22 W - 256
11/24/20 16:00 20.0 75 13 23 W - 257
11/24/20 15:00 18.3 75 11 18 SW - 247
11/24/20 14:00 16.2 91 10 16 SW - 246
11/24/20 13:00 14.9 91 10 15 W - 248
11/24/20 12:00 13.7 91 9 16 W - 250
11/24/20 11:00 12.6 91 8 14 SW - 246
11/24/20 10:00 11.4 91 8 14 W - 248
11/24/20 09:00 11.5 90 7 14 W - 254
11/24/20 08:00 10.6 90 7 12 W - 258
11/24/20 07:00 9.6 90 6 10 W - 260